Time,TemperatureF,DewpointF,PressureIn,WindDirection,WindDirectionDegrees,WindSpeedMPH,WindSpeedGustMPH,Humidity,HourlyPrecipIn,Conditions,Clouds,dailyrainin,SoftwareType,DateUTC
2013-02-26 00:01:00,18.0,12.0,-100.00,SW,215,7.0,8.0,78,-99.99,,,0.00,,2013-02-26 07:01:00,
2013-02-26 01:11:00,18.0,13.0,-100.00,SW,225,4.0,7.0,77,-99.99,,,0.00,,2013-02-26 08:11:00,
2013-02-26 01:21:00,18.0,13.0,-100.00,SW,225,4.0,7.0,77,-99.99,,,0.00,,2013-02-26 08:21:00,
2013-02-26 01:31:00,18.0,12.0,-100.00,SSW,210,5.0,8.0,75,-99.99,,,0.00,,2013-02-26 08:31:00,
2013-02-26 01:42:00,18.0,12.0,-100.00,SSW,210,5.0,8.0,75,-99.99,,,0.00,,2013-02-26 08:42:00,
2013-02-26 01:52:00,18.0,12.0,-100.00,SSW,210,5.0,8.0,75,-99.99,,,0.00,,2013-02-26 08:52:00,
2013-02-26 02:01:00,18.0,12.0,-100.00,SSW,210,5.0,8.0,75,-99.99,,,0.00,,2013-02-26 09:01:00,
2013-02-26 02:11:00,18.0,11.0,-100.00,SW,215,9.0,11.0,74,-99.99,,,0.00,,2013-02-26 09:11:00,
2013-02-26 02:21:00,18.0,11.0,-100.00,SW,215,9.0,11.0,74,-99.99,,,0.00,,2013-02-26 09:21:00,
2013-02-26 02:31:00,17.0,11.0,-100.00,SSW,205,9.0,10.0,75,-99.99,,,0.00,,2013-02-26 09:31:00,
2013-02-26 02:43:00,17.0,11.0,-100.00,SSW,205,9.0,10.0,75,-99.99,,,0.00,,2013-02-26 09:43:00,
2013-02-26 02:51:00,17.0,11.0,-100.00,SSW,205,9.0,10.0,75,-99.99,,,0.00,,2013-02-26 09:51:00,
2013-02-26 03:01:00,17.0,11.0,-100.00,SSW,205,9.0,10.0,75,-99.99,,,0.00,,2013-02-26 10:01:00,
2013-02-26 04:01:00,16.0,12.0,-100.00,SSW,200,4.0,6.0,82,-99.99,,,0.00,,2013-02-26 11:01:00,
2013-02-26 04:11:00,18.0,12.0,-100.00,SW,225,6.0,10.0,79,-99.99,,,0.00,,2013-02-26 11:11:00,
2013-02-26 04:21:00,18.0,12.0,-100.00,SW,225,6.0,10.0,79,-99.99,,,0.00,,2013-02-26 11:21:00,
2013-02-26 04:31:00,16.0,12.0,-100.00,SSW,200,4.0,6.0,82,-99.99,,,0.00,,2013-02-26 11:31:00,
2013-02-26 04:41:00,16.0,12.0,-100.00,SSW,200,4.0,6.0,82,-99.99,,,0.00,,2013-02-26 11:41:00,
2013-02-26 04:52:00,16.0,12.0,-100.00,SSW,200,4.0,6.0,82,-99.99,,,0.00,,2013-02-26 11:52:00,
2013-02-26 05:01:00,15.0,10.0,-100.00,SW,235,10.0,13.0,80,-99.99,,,0.00,,2013-02-26 12:01:00,
2013-02-26 05:11:00,17.0,12.0,-100.00,SSW,200,4.0,6.0,80,-99.99,,,0.00,,2013-02-26 12:11:00,
2013-02-26 05:22:00,17.0,12.0,-100.00,SSW,200,4.0,6.0,80,-99.99,,,0.00,,2013-02-26 12:22:00,
2013-02-26 05:32:00,15.0,10.0,-100.00,SW,235,10.0,13.0,80,-99.99,,,0.00,,2013-02-26 12:32:00,
2013-02-26 05:42:00,15.0,10.0,-100.00,SW,235,10.0,13.0,80,-99.99,,,0.00,,2013-02-26 12:42:00,
2013-02-26 05:52:00,15.0,10.0,-100.00,SW,235,10.0,13.0,80,-99.99,,,0.00,,2013-02-26 12:52:00,
2013-02-26 06:11:00,17.0,12.0,-100.00,SW,225,9.0,11.0,79,-99.99,,,0.00,,2013-02-26 13:11:00,
2013-02-26 06:21:00,17.0,12.0,-100.00,SW,225,9.0,11.0,79,-99.99,,,0.00,,2013-02-26 13:21:00,
2013-02-26 06:31:00,17.0,12.0,-100.00,SW,225,9.0,11.0,79,-99.99,,,0.00,,2013-02-26 13:31:00,
2013-02-26 07:00:00,17.0,12.0,-100.00,SSW,210,6.0,8.0,78,-99.99,,,0.00,,2013-02-26 14:00:00,
2013-02-26 07:11:00,17.0,12.0,-100.00,SW,225,6.0,11.0,78,-99.99,,,0.00,,2013-02-26 14:11:00,
2013-02-26 07:21:00,17.0,12.0,-100.00,SW,225,6.0,11.0,78,-99.99,,,0.00,,2013-02-26 14:21:00,
2013-02-26 07:31:00,17.0,12.0,-100.00,SSW,210,6.0,8.0,78,-99.99,,,0.00,,2013-02-26 14:31:00,
2013-02-26 07:42:00,17.0,12.0,-100.00,SSW,210,6.0,8.0,78,-99.99,,,0.00,,2013-02-26 14:42:00,
2013-02-26 07:52:00,17.0,12.0,-100.00,SSW,210,6.0,8.0,78,-99.99,,,0.00,,2013-02-26 14:52:00,
2013-02-26 08:00:00,17.0,11.0,-100.00,SW,220,6.0,9.0,76,-99.99,,,0.00,,2013-02-26 15:00:00,
2013-02-26 08:11:00,17.0,11.0,-100.00,SW,225,6.0,8.0,77,-99.99,,,0.00,,2013-02-26 15:11:00,
2013-02-26 08:21:00,17.0,11.0,-100.00,SW,225,6.0,8.0,77,-99.99,,,0.00,,2013-02-26 15:21:00,
2013-02-26 08:32:00,17.0,11.0,-100.00,SW,220,6.0,9.0,76,-99.99,,,0.00,,2013-02-26 15:32:00,
2013-02-26 08:42:00,17.0,11.0,-100.00,SW,220,6.0,9.0,76,-99.99,,,0.00,,2013-02-26 15:42:00,
2013-02-26 08:51:00,17.0,11.0,-100.00,SW,220,6.0,9.0,76,-99.99,,,0.00,,2013-02-26 15:51:00,
2013-02-26 09:01:00,18.0,12.0,-100.00,SW,215,3.0,6.0,76,-99.99,,,0.00,,2013-02-26 16:01:00,
2013-02-26 09:11:00,17.0,11.0,-100.00,SSW,210,4.0,6.0,77,-99.99,,,0.00,,2013-02-26 16:11:00,
2013-02-26 09:22:00,17.0,11.0,-100.00,SSW,210,4.0,6.0,77,-99.99,,,0.00,,2013-02-26 16:22:00,
2013-02-26 09:31:00,18.0,12.0,-100.00,SW,215,3.0,6.0,76,-99.99,,,0.00,,2013-02-26 16:31:00,
2013-02-26 09:42:00,18.0,12.0,-100.00,SW,215,3.0,6.0,76,-99.99,,,0.00,,2013-02-26 16:42:00,
2013-02-26 09:51:00,18.0,12.0,-100.00,SW,215,3.0,6.0,76,-99.99,,,0.00,,2013-02-26 16:51:00,
2013-02-26 10:00:00,19.0,11.0,-100.00,WSW,240,9.0,10.0,72,-99.99,,,0.00,,2013-02-26 17:00:00,
2013-02-26 10:11:00,19.0,12.0,-100.00,WSW,245,4.0,6.0,74,-99.99,,,0.00,,2013-02-26 17:11:00,
2013-02-26 10:21:00,19.0,12.0,-100.00,WSW,245,4.0,6.0,74,-99.99,,,0.00,,2013-02-26 17:21:00,
2013-02-26 10:32:00,19.0,11.0,-100.00,WSW,240,9.0,10.0,72,-99.99,,,0.00,,2013-02-26 17:32:00,
2013-02-26 10:41:00,19.0,11.0,-100.00,WSW,240,9.0,10.0,72,-99.99,,,0.00,,2013-02-26 17:41:00,
2013-02-26 10:52:00,19.0,11.0,-100.00,WSW,240,9.0,10.0,72,-99.99,,,0.00,,2013-02-26 17:52:00,
2013-02-26 11:00:00,20.0,12.0,-100.00,SW,225,11.0,15.0,69,-99.99,,,0.00,,2013-02-26 18:00:00,
2013-02-26 11:12:00,20.0,11.0,-100.00,SW,235,9.0,12.0,70,-99.99,,,0.00,,2013-02-26 18:12:00,
2013-02-26 11:21:00,20.0,11.0,-100.00,SW,235,9.0,12.0,70,-99.99,,,0.00,,2013-02-26 18:21:00,
2013-02-26 11:31:00,20.0,11.0,-100.00,SW,230,11.0,17.0,68,-99.99,,,0.00,,2013-02-26 18:31:00,
2013-02-26 11:32:00,20.0,12.0,-100.00,SW,225,11.0,15.0,69,-99.99,,,0.00,,2013-02-26 18:32:00,
2013-02-26 11:42:00,20.0,12.0,-100.00,SW,225,11.0,15.0,69,-99.99,,,0.00,,2013-02-26 18:42:00,
2013-02-26 11:52:00,20.0,12.0,-100.00,SW,225,11.0,15.0,69,-99.99,,,0.00,,2013-02-26 18:52:00,
2013-02-26 12:00:00,21.0,11.0,-100.00,WSW,245,10.0,15.0,67,-99.99,,,0.00,,2013-02-26 19:00:00,
2013-02-26 12:11:00,20.0,11.0,-100.00,SW,230,11.0,17.0,68,-99.99,,,0.00,,2013-02-26 19:11:00,
2013-02-26 12:22:00,20.0,11.0,-100.00,SW,230,11.0,17.0,68,-99.99,,,0.00,,2013-02-26 19:22:00,
2013-02-26 12:31:00,21.0,11.0,-100.00,SW,230,12.0,13.0,64,-99.99,,,0.00,,2013-02-26 19:31:00,
2013-02-26 12:51:00,21.0,11.0,-100.00,WSW,245,10.0,15.0,67,-99.99,,,0.00,,2013-02-26 19:51:00,
2013-02-26 13:11:00,21.0,11.0,-100.00,SW,230,12.0,13.0,64,-99.99,,,0.00,,2013-02-26 20:11:00,
2013-02-26 13:21:00,21.0,11.0,-100.00,SW,230,12.0,13.0,64,-99.99,,,0.00,,2013-02-26 20:21:00,
2013-02-26 14:00:00,22.0,12.0,-100.00,SW,225,11.0,13.0,65,-99.99,,,0.00,,2013-02-26 21:00:00,
2013-02-26 14:51:00,22.0,12.0,-100.00,SW,225,11.0,13.0,65,-99.99,,,0.00,,2013-02-26 21:51:00,
2013-02-26 15:01:00,23.0,11.0,-100.00,SW,230,12.0,16.0,60,-99.99,,,0.00,,2013-02-26 22:01:00,
2013-02-26 15:11:00,22.0,11.0,-100.00,SW,225,17.0,19.0,62,-99.99,,,0.00,,2013-02-26 22:11:00,
2013-02-26 15:21:00,22.0,11.0,-100.00,SW,225,17.0,19.0,62,-99.99,,,0.00,,2013-02-26 22:21:00,
2013-02-26 15:31:00,23.0,11.0,-100.00,SW,230,12.0,16.0,60,-99.99,,,0.00,,2013-02-26 22:31:00,
2013-02-26 15:41:00,23.0,11.0,-100.00,SW,230,12.0,16.0,60,-99.99,,,0.00,,2013-02-26 22:41:00,
2013-02-26 15:51:00,23.0,11.0,-100.00,SW,230,12.0,16.0,60,-99.99,,,0.00,,2013-02-26 22:51:00,
2013-02-26 16:01:00,22.0,12.0,-100.00,WSW,245,12.0,16.0,63,-99.99,,,0.00,,2013-02-26 23:01:00,
2013-02-26 16:11:00,23.0,12.0,-100.00,WSW,240,10.0,12.0,61,-99.99,,,0.00,,2013-02-26 23:11:00,
2013-02-26 16:21:00,23.0,12.0,-100.00,WSW,240,10.0,12.0,61,-99.99,,,0.00,,2013-02-26 23:21:00,
2013-02-26 16:31:00,22.0,12.0,-100.00,WSW,245,12.0,16.0,63,-99.99,,,0.00,,2013-02-26 23:31:00,
2013-02-26 16:41:00,22.0,12.0,-100.00,WSW,245,12.0,16.0,63,-99.99,,,0.00,,2013-02-26 23:41:00,
2013-02-26 16:52:00,22.0,12.0,-100.00,WSW,245,12.0,16.0,63,-99.99,,,0.00,,2013-02-26 23:52:00,
2013-02-26 17:01:00,22.0,11.0,-100.00,WSW,255,10.0,12.0,62,-99.99,,,0.00,,2013-02-27 00:01:00,
2013-02-26 17:11:00,23.0,12.0,-100.00,WSW,240,12.0,15.0,63,-99.99,,,0.00,,2013-02-27 00:11:00,
2013-02-26 17:21:00,23.0,12.0,-100.00,WSW,240,12.0,15.0,63,-99.99,,,0.00,,2013-02-27 00:21:00,
2013-02-26 17:31:00,22.0,11.0,-100.00,WSW,255,10.0,12.0,62,-99.99,,,0.00,,2013-02-27 00:31:00,
2013-02-26 17:41:00,22.0,11.0,-100.00,WSW,255,10.0,12.0,62,-99.99,,,0.00,,2013-02-27 00:41:00,
2013-02-26 17:51:00,22.0,11.0,-100.00,WSW,255,10.0,12.0,62,-99.99,,,0.00,,2013-02-27 00:51:00,
2013-02-26 18:01:00,21.0,11.0,-100.00,WSW,240,10.0,12.0,66,-99.99,,,0.00,,2013-02-27 01:01:00,
2013-02-26 18:11:00,22.0,11.0,-100.00,WSW,245,11.0,14.0,64,-99.99,,,0.00,,2013-02-27 01:11:00,
2013-02-26 18:21:00,22.0,11.0,-100.00,WSW,245,11.0,14.0,64,-99.99,,,0.00,,2013-02-27 01:21:00,
2013-02-26 18:31:00,21.0,11.0,-100.00,WSW,240,10.0,12.0,66,-99.99,,,0.00,,2013-02-27 01:31:00,
2013-02-26 18:42:00,21.0,11.0,-100.00,WSW,240,10.0,12.0,66,-99.99,,,0.00,,2013-02-27 01:42:00,
2013-02-26 18:51:00,21.0,11.0,-100.00,WSW,240,10.0,12.0,66,-99.99,,,0.00,,2013-02-27 01:51:00,
2013-02-26 19:14:00,20.0,11.0,-100.00,SW,225,8.0,10.0,67,-99.99,,,0.00,,2013-02-27 02:14:00,
2013-02-26 19:22:00,20.0,11.0,-100.00,SW,225,8.0,10.0,67,-99.99,,,0.00,,2013-02-27 02:22:00,
2013-02-26 19:52:00,20.0,11.0,-100.00,SW,230,8.0,9.0,67,-99.99,,,0.00,,2013-02-27 02:52:00,
2013-02-26 20:01:00,20.0,11.0,-100.00,SW,230,8.0,9.0,67,-99.99,,,0.00,,2013-02-27 03:01:00,
2013-02-26 20:11:00,20.0,11.0,-100.00,WSW,245,8.0,10.0,67,-99.99,,,0.00,,2013-02-27 03:11:00,
2013-02-26 20:21:00,20.0,11.0,-100.00,WSW,245,8.0,10.0,67,-99.99,,,0.00,,2013-02-27 03:21:00,
2013-02-26 20:31:00,20.0,11.0,-100.00,WSW,240,7.0,8.0,67,-99.99,,,0.00,,2013-02-27 03:31:00,
2013-02-26 20:41:00,20.0,11.0,-100.00,WSW,240,7.0,8.0,67,-99.99,,,0.00,,2013-02-27 03:41:00,
2013-02-26 20:51:00,20.0,11.0,-100.00,WSW,240,7.0,8.0,67,-99.99,,,0.00,,2013-02-27 03:51:00,
2013-02-26 21:11:00,20.0,11.0,-100.00,SW,230,8.0,11.0,68,-99.99,,,0.00,,2013-02-27 04:11:00,
2013-02-26 21:21:00,20.0,11.0,-100.00,SW,230,8.0,11.0,68,-99.99,,,0.00,,2013-02-27 04:21:00,
2013-02-26 22:02:00,18.0,10.0,-100.00,WSW,245,6.0,8.0,70,-99.99,,,0.00,,2013-02-27 05:02:00,
2013-02-26 22:11:00,19.0,11.0,-100.00,SSW,210,5.0,8.0,69,-99.99,,,0.00,,2013-02-27 05:11:00,
2013-02-26 22:22:00,19.0,11.0,-100.00,SSW,210,5.0,8.0,69,-99.99,,,0.00,,2013-02-27 05:22:00,
2013-02-26 22:32:00,18.0,10.0,-100.00,WSW,245,6.0,8.0,70,-99.99,,,0.00,,2013-02-27 05:32:00,
2013-02-26 22:42:00,18.0,10.0,-100.00,WSW,245,6.0,8.0,70,-99.99,,,0.00,,2013-02-27 05:42:00,
2013-02-26 22:52:00,18.0,10.0,-100.00,WSW,245,6.0,8.0,70,-99.99,,,0.00,,2013-02-27 05:52:00,
2013-02-26 23:01:00,13.0,6.0,-100.00,SSE,165,0.0,3.0,74,-99.99,,,0.00,,2013-02-27 06:01:00,
2013-02-26 23:11:00,16.0,8.0,-100.00,SE,125,1.0,3.0,71,-99.99,,,0.00,,2013-02-27 06:11:00,
2013-02-26 23:21:00,16.0,8.0,-100.00,SE,125,1.0,3.0,71,-99.99,,,0.00,,2013-02-27 06:21:00,
2013-02-26 23:32:00,13.0,6.0,-100.00,SSE,165,0.0,3.0,74,-99.99,,,0.00,,2013-02-27 06:32:00,
2013-02-26 23:41:00,13.0,6.0,-100.00,SSE,165,0.0,3.0,74,-99.99,,,0.00,,2013-02-27 06:41:00,
2013-02-26 23:51:00,13.0,6.0,-100.00,SSE,165,0.0,3.0,74,-99.99,,,0.00,,2013-02-27 06:51:00,